sensor_id;sensor_type;location;lat;lon;timestamp;pressure;altitude;pressure_sealevel;temperature;humidity
48774;BME280;34576;0.000;0.000;2023-07-08T00:06:17;96695.88;;;22.05;53.03
48774;BME280;34576;0.000;0.000;2023-07-08T00:13:17;96689.22;;;22.03;52.84
48774;BME280;34576;0.000;0.000;2023-07-08T00:27:22;96670.19;;;22.04;52.55
48774;BME280;34576;0.000;0.000;2023-07-08T00:34:22;96663.25;;;22.03;52.30
48774;BME280;34576;0.000;0.000;2023-07-08T00:41:33;96663.25;;;22.03;52.26
48774;BME280;34576;0.000;0.000;2023-07-08T00:48:35;96654.09;;;22.04;52.03
48774;BME280;34576;0.000;0.000;2023-07-08T00:55:35;96659.47;;;22.04;52.45
48774;BME280;34576;0.000;0.000;2023-07-08T01:02:38;96657.28;;;22.06;52.53
48774;BME280;34576;0.000;0.000;2023-07-08T01:09:44;96658.06;;;22.07;52.65
48774;BME280;34576;0.000;0.000;2023-07-08T01:16:46;96658.06;;;22.07;52.04
48774;BME280;34576;0.000;0.000;2023-07-08T01:23:46;96689.44;;;22.06;51.83
48774;BME280;34576;0.000;0.000;2023-07-08T01:30:47;96683.00;;;22.08;51.62
48774;BME280;34576;0.000;0.000;2023-07-08T01:37:50;96702.84;;;22.06;52.22
48774;BME280;34576;0.000;0.000;2023-07-08T01:44:52;96696.88;;;22.10;52.18
48774;BME280;34576;0.000;0.000;2023-07-08T01:51:52;96690.22;;;22.07;51.67
48774;BME280;34576;0.000;0.000;2023-07-08T01:58:53;96688.81;;;22.10;52.19
48774;BME280;34576;0.000;0.000;2023-07-08T02:05:53;96697.94;;;22.09;52.06
48774;BME280;34576;0.000;0.000;2023-07-08T02:12:54;96688.81;;;22.10;51.63
48774;BME280;34576;0.000;0.000;2023-07-08T02:19:55;96675.75;;;22.08;51.48
48774;BME280;34576;0.000;0.000;2023-07-08T02:26:55;96673.53;;;22.10;51.92
48774;BME280;34576;0.000;0.000;2023-07-08T02:33:55;96693.41;;;22.09;51.61
48774;BME280;34576;0.000;0.000;2023-07-08T02:40:56;96720.97;;;22.10;51.99
48774;BME280;34576;0.000;0.000;2023-07-08T02:47:56;96761.63;;;22.12;52.10
48774;BME280;34576;0.000;0.000;2023-07-08T02:54:57;96744.00;;;22.11;52.08
48774;BME280;34576;0.000;0.000;2023-07-08T03:01:57;96757.88;;;22.13;51.88
48774;BME280;34576;0.000;0.000;2023-07-08T03:08:57;96773.94;;;22.13;52.15
48774;BME280;34576;0.000;0.000;2023-07-08T03:15:58;96783.88;;;22.12;52.19
48774;BME280;34576;0.000;0.000;2023-07-08T03:23:01;96796.16;;;22.13;52.23
48774;BME280;34576;0.000;0.000;2023-07-08T03:30:01;96799.34;;;22.15;52.61
48774;BME280;34576;0.000;0.000;2023-07-08T03:37:04;96820.00;;;22.15;52.72
48774;BME280;34576;0.000;0.000;2023-07-08T03:44:04;96837.63;;;22.16;52.52
48774;BME280;34576;0.000;0.000;2023-07-08T03:51:08;96858.00;;;22.17;52.31
48774;BME280;34576;0.000;0.000;2023-07-08T03:58:10;96889.34;;;22.16;52.93
48774;BME280;34576;0.000;0.000;2023-07-08T04:05:14;96900.84;;;22.17;52.72
48774;BME280;34576;0.000;0.000;2023-07-08T04:12:15;96921.22;;;22.18;52.80
48774;BME280;34576;0.000;0.000;2023-07-08T04:19:15;96948.00;;;22.18;52.51
48774;BME280;34576;0.000;0.000;2023-07-08T04:26:16;96954.75;;;22.29;53.08
48774;BME280;34576;0.000;0.000;2023-07-08T04:33:17;96938.69;;;22.29;53.69
48774;BME280;34576;0.000;0.000;2023-07-08T04:40:18;96970.34;;;22.27;54.10
48774;BME280;34576;0.000;0.000;2023-07-08T04:47:19;96976.81;;;22.26;54.22
48774;BME280;34576;0.000;0.000;2023-07-08T04:54:20;96988.91;;;22.23;54.94
48774;BME280;34576;0.000;0.000;2023-07-08T05:01:20;97004.97;;;22.23;55.06
48774;BME280;34576;0.000;0.000;2023-07-08T05:08:20;96998.44;;;22.30;54.87
48774;BME280;34576;0.000;0.000;2023-07-08T05:15:21;97020.75;;;22.25;55.26
48774;BME280;34576;0.000;0.000;2023-07-08T05:22:21;96969.84;;;22.25;55.58
48774;BME280;34576;0.000;0.000;2023-07-08T05:29:25;96916.34;;;22.20;55.64
48774;BME280;34576;0.000;0.000;2023-07-08T05:36:26;96917.41;;;22.19;55.47
48774;BME280;34576;0.000;0.000;2023-07-08T05:43:26;96910.78;;;22.16;54.91
48774;BME280;34576;0.000;0.000;2023-07-08T05:50:26;96916.94;;;22.17;55.20
48774;BME280;34576;0.000;0.000;2023-07-08T05:57:27;96899.25;;;22.16;54.84
48774;BME280;34576;0.000;0.000;2023-07-08T06:04:27;96908.13;;;22.16;54.58
48774;BME280;34576;0.000;0.000;2023-07-08T06:11:28;96921.00;;;22.14;54.97
48774;BME280;34576;0.000;0.000;2023-07-08T06:18:28;96884.13;;;21.12;58.40
48774;BME280;34576;0.000;0.000;2023-07-08T06:25:28;96891.66;;;21.62;57.75
48774;BME280;34576;0.000;0.000;2023-07-08T06:32:28;96866.78;;;21.76;56.08
48774;BME280;34576;0.000;0.000;2023-07-08T06:39:29;96855.53;;;21.27;56.77
48774;BME280;34576;0.000;0.000;2023-07-08T06:46:29;96818.44;;;21.20;54.20
48774;BME280;34576;0.000;0.000;2023-07-08T06:53:29;96807.31;;;21.46;52.40
48774;BME280;34576;0.000;0.000;2023-07-08T07:00:30;96813.31;;;21.24;55.50
48774;BME280;34576;0.000;0.000;2023-07-08T07:07:30;96812.97;;;21.44;53.92
48774;BME280;34576;0.000;0.000;2023-07-08T07:14:30;96824.34;;;21.36;55.61
48774;BME280;34576;0.000;0.000;2023-07-08T07:21:31;96837.13;;;21.58;55.35
48774;BME280;34576;0.000;0.000;2023-07-08T07:28:31;96865.72;;;21.77;53.54
48774;BME280;34576;0.000;0.000;2023-07-08T07:35:31;96888.97;;;21.62;56.40
48774;BME280;34576;0.000;0.000;2023-07-08T07:42:32;96895.75;;;21.74;56.59
48774;BME280;34576;0.000;0.000;2023-07-08T07:49:32;96902.72;;;21.88;55.80
48774;BME280;34576;0.000;0.000;2023-07-08T07:56:32;96907.16;;;21.93;55.78
48774;BME280;34576;0.000;0.000;2023-07-08T08:03:33;96913.63;;;21.92;55.50
48774;BME280;34576;0.000;0.000;2023-07-08T08:10:34;96916.03;;;21.94;55.50
48774;BME280;34576;0.000;0.000;2023-07-08T08:17:34;96925.34;;;21.96;55.47
48774;BME280;34576;0.000;0.000;2023-07-08T08:24:35;96926.91;;;21.97;55.80
48774;BME280;34576;0.000;0.000;2023-07-08T08:31:35;96936.25;;;22.00;55.46
48774;BME280;34576;0.000;0.000;2023-07-08T08:38:35;96950.94;;;22.02;55.03
48774;BME280;34576;0.000;0.000;2023-07-08T08:45:41;96937.97;;;22.10;55.98
48774;BME280;34576;0.000;0.000;2023-07-08T08:52:43;96937.75;;;22.06;56.08
48774;BME280;34576;0.000;0.000;2023-07-08T08:59:45;96938.63;;;22.01;57.42
48774;BME280;34576;0.000;0.000;2023-07-08T09:06:49;96926.25;;;22.05;57.51
48774;BME280;34576;0.000;0.000;2023-07-08T09:13:51;96926.25;;;22.05;63.41
48774;BME280;34576;0.000;0.000;2023-07-08T09:20:52;96923.38;;;22.16;58.38
48774;BME280;34576;0.000;0.000;2023-07-08T09:27:54;96927.25;;;22.10;57.69
48774;BME280;34576;0.000;0.000;2023-07-08T09:35:02;96929.63;;;22.11;57.13
48774;BME280;34576;0.000;0.000;2023-07-08T09:42:06;96925.34;;;22.10;56.48
48774;BME280;34576;0.000;0.000;2023-07-08T09:49:17;96923.19;;;22.12;56.19
48774;BME280;34576;0.000;0.000;2023-07-08T09:56:18;96929.31;;;22.13;56.01
48774;BME280;34576;0.000;0.000;2023-07-08T10:03:22;96924.75;;;22.13;56.00
48774;BME280;34576;0.000;0.000;2023-07-08T10:10:27;96921.00;;;22.14;55.78
48774;BME280;34576;0.000;0.000;2023-07-08T10:17:28;96921.81;;;22.15;56.00
48774;BME280;34576;0.000;0.000;2023-07-08T10:24:37;96918.84;;;22.16;55.75
48774;BME280;34576;0.000;0.000;2023-07-08T10:31:42;96916.16;;;22.16;55.48
48774;BME280;34576;0.000;0.000;2023-07-08T10:39:04;96920.41;;;22.17;55.74
48774;BME280;34576;0.000;0.000;2023-07-08T11:00:28;96915.25;;;22.21;55.50
48774;BME280;34576;0.000;0.000;2023-07-08T11:07:38;96909.91;;;22.21;55.43
48774;BME280;34576;0.000;0.000;2023-07-08T11:14:51;96923.00;;;22.22;55.56
48774;BME280;34576;0.000;0.000;2023-07-08T11:21:57;96913.88;;;22.23;55.51
48774;BME280;34576;0.000;0.000;2023-07-08T11:29:00;96914.66;;;22.24;55.33
48774;BME280;34576;0.000;0.000;2023-07-08T11:36:02;96915.16;;;22.26;55.12
48774;BME280;34576;0.000;0.000;2023-07-08T11:43:04;96911.38;;;22.27;55.28
48774;BME280;34576;0.000;0.000;2023-07-08T11:50:22;96907.31;;;22.30;55.46
48774;BME280;34576;0.000;0.000;2023-07-08T11:57:28;96901.16;;;22.29;55.28
48774;BME280;34576;0.000;0.000;2023-07-08T12:04:30;96904.34;;;22.31;55.23
48774;BME280;34576;0.000;0.000;2023-07-08T12:11:33;96909.44;;;22.33;55.30
48774;BME280;34576;0.000;0.000;2023-07-08T12:18:35;96898.41;;;22.34;55.24
48774;BME280;34576;0.000;0.000;2023-07-08T12:25:36;96898.63;;;22.38;55.23
48774;BME280;34576;0.000;0.000;2023-07-08T12:32:37;96892.97;;;22.39;55.24
48774;BME280;34576;0.000;0.000;2023-07-08T12:39:37;96879.56;;;22.39;55.07
48774;BME280;34576;0.000;0.000;2023-07-08T12:46:37;96878.94;;;22.43;55.08
48774;BME280;34576;0.000;0.000;2023-07-08T12:53:39;96881.31;;;22.44;55.42
48774;BME280;34576;0.000;0.000;2023-07-08T13:00:40;96884.53;;;22.46;55.15
48774;BME280;34576;0.000;0.000;2023-07-08T13:07:42;96874.59;;;22.47;55.29
48774;BME280;34576;0.000;0.000;2023-07-08T13:14:43;96872.38;;;22.49;55.51
48774;BME280;34576;0.000;0.000;2023-07-08T13:21:45;96870.22;;;22.51;55.27
48774;BME280;34576;0.000;0.000;2023-07-08T13:28:46;96871.81;;;22.52;55.34
48774;BME280;34576;0.000;0.000;2023-07-08T13:35:47;96867.72;;;22.54;55.31
48774;BME280;34576;0.000;0.000;2023-07-08T13:42:51;96871.69;;;22.57;55.32
48774;BME280;34576;0.000;0.000;2023-07-08T13:49:54;96867.91;;;22.58;55.60
48774;BME280;34576;0.000;0.000;2023-07-08T13:56:56;96861.47;;;22.59;55.72
48774;BME280;34576;0.000;0.000;2023-07-08T14:03:56;96855.00;;;22.60;55.31
48774;BME280;34576;0.000;0.000;2023-07-08T14:10:57;96856.28;;;22.63;55.36
48774;BME280;34576;0.000;0.000;2023-07-08T14:17:57;96853.31;;;22.64;55.78
48774;BME280;34576;0.000;0.000;2023-07-08T14:25:00;96851.13;;;22.66;55.83
48774;BME280;34576;0.000;0.000;2023-07-08T14:32:01;96844.66;;;22.67;55.61
48774;BME280;34576;0.000;0.000;2023-07-08T14:39:10;96852.69;;;22.67;55.54
48774;BME280;34576;0.000;0.000;2023-07-08T14:46:11;96857.47;;;22.70;55.76
48774;BME280;34576;0.000;0.000;2023-07-08T14:53:13;96855.28;;;22.72;55.67
48774;BME280;34576;0.000;0.000;2023-07-08T15:00:14;96856.88;;;22.73;55.53
48774;BME280;34576;0.000;0.000;2023-07-08T15:07:14;96859.25;;;22.75;55.84
48774;BME280;34576;0.000;0.000;2023-07-08T15:14:18;96860.03;;;22.75;55.70
48774;BME280;34576;0.000;0.000;2023-07-08T15:21:19;96865.09;;;22.77;55.70
48774;BME280;34576;0.000;0.000;2023-07-08T15:28:35;96863.22;;;22.78;55.61
48774;BME280;34576;0.000;0.000;2023-07-08T15:35:37;96864.78;;;22.79;55.82
48774;BME280;34576;0.000;0.000;2023-07-08T15:42:37;96859.13;;;22.80;55.77
48774;BME280;34576;0.000;0.000;2023-07-08T15:49:37;96859.94;;;22.81;55.65
48774;BME280;34576;0.000;0.000;2023-07-08T15:56:38;96857.25;;;22.81;55.73
48774;BME280;34576;0.000;0.000;2023-07-08T16:03:39;96854.25;;;22.82;55.61
48774;BME280;34576;0.000;0.000;2023-07-08T16:10:40;96853.16;;;22.83;55.85
48774;BME280;34576;0.000;0.000;2023-07-08T16:17:40;96852.06;;;22.84;55.92
48774;BME280;34576;0.000;0.000;2023-07-08T16:24:40;96849.06;;;22.86;55.77
48774;BME280;34576;0.000;0.000;2023-07-08T16:31:41;96854.44;;;22.86;55.98
48774;BME280;34576;0.000;0.000;2023-07-08T16:38:41;96850.66;;;22.87;55.68
48774;BME280;34576;0.000;0.000;2023-07-08T16:45:42;96856.03;;;22.87;55.73
48774;BME280;34576;0.000;0.000;2023-07-08T16:52:42;96857.63;;;22.88;55.86
48774;BME280;34576;0.000;0.000;2023-07-08T16:59:42;96855.25;;;22.86;56.02
48774;BME280;34576;0.000;0.000;2023-07-08T17:06:43;96853.03;;;22.88;55.88
48774;BME280;34576;0.000;0.000;2023-07-08T17:13:43;96856.84;;;22.87;56.03
48774;BME280;34576;0.000;0.000;2023-07-08T17:20:44;96854.16;;;22.87;55.96
48774;BME280;34576;0.000;0.000;2023-07-08T17:27:47;96857.63;;;22.88;55.81
48774;BME280;34576;0.000;0.000;2023-07-08T17:34:47;96851.47;;;22.87;55.58
48774;BME280;34576;0.000;0.000;2023-07-08T17:41:48;96860.31;;;22.88;55.78
48774;BME280;34576;0.000;0.000;2023-07-08T17:48:51;96856.03;;;22.87;55.65
48774;BME280;34576;0.000;0.000;2023-07-08T17:55:51;96853.03;;;22.88;55.78
48774;BME280;34576;0.000;0.000;2023-07-08T18:02:53;96862.19;;;22.87;55.71
48774;BME280;34576;0.000;0.000;2023-07-08T18:09:54;96867.56;;;22.87;55.96
48774;BME280;34576;0.000;0.000;2023-07-08T18:16:54;96869.94;;;22.89;55.79
48774;BME280;34576;0.000;0.000;2023-07-08T18:23:55;96870.25;;;22.87;55.50
48774;BME280;34576;0.000;0.000;2023-07-08T18:30:56;96876.69;;;22.86;55.63
48774;BME280;34576;0.000;0.000;2023-07-08T18:37:56;96884.44;;;22.88;55.42
48774;BME280;34576;0.000;0.000;2023-07-08T18:44:56;96893.56;;;22.87;55.59
48774;BME280;34576;0.000;0.000;2023-07-08T18:51:57;96898.63;;;22.88;55.62
48774;BME280;34576;0.000;0.000;2023-07-08T18:58:57;96911.28;;;22.88;55.50
48774;BME280;34576;0.000;0.000;2023-07-08T19:05:57;96916.63;;;22.88;55.55
48774;BME280;34576;0.000;0.000;2023-07-08T19:12:59;96924.69;;;22.88;55.79
48774;BME280;34576;0.000;0.000;2023-07-08T19:19:59;96931.63;;;22.89;55.70
48774;BME280;34576;0.000;0.000;2023-07-08T19:27:00;96933.50;;;22.88;55.50
48774;BME280;34576;0.000;0.000;2023-07-08T19:34:01;96944.22;;;22.88;55.35
48774;BME280;34576;0.000;0.000;2023-07-08T19:41:02;96949.59;;;22.88;55.49
48774;BME280;34576;0.000;0.000;2023-07-08T19:48:03;96972.97;;;22.88;55.26
48774;BME280;34576;0.000;0.000;2023-07-08T19:55:03;96975.63;;;22.88;55.43
48774;BME280;34576;0.000;0.000;2023-07-08T20:02:13;96987.16;;;22.88;55.66
48774;BME280;34576;0.000;0.000;2023-07-08T20:09:14;96986.06;;;22.89;55.63
48774;BME280;34576;0.000;0.000;2023-07-08T20:16:21;96997.09;;;22.88;55.45
48774;BME280;34576;0.000;0.000;2023-07-08T20:23:23;96996.00;;;22.89;55.21
48774;BME280;34576;0.000;0.000;2023-07-08T20:30:24;97001.38;;;22.89;55.57
48774;BME280;34576;0.000;0.000;2023-07-08T20:37:27;97006.75;;;22.89;55.41
48774;BME280;34576;0.000;0.000;2023-07-08T20:44:28;97008.63;;;22.88;55.36
48774;BME280;34576;0.000;0.000;2023-07-08T20:51:28;97015.56;;;22.89;55.13
48774;BME280;34576;0.000;0.000;2023-07-08T20:58:30;97030.06;;;22.88;55.53
48774;BME280;34576;0.000;0.000;2023-07-08T21:05:30;97030.88;;;22.89;55.14
48774;BME280;34576;0.000;0.000;2023-07-08T21:12:31;97040.78;;;22.88;55.35
48774;BME280;34576;0.000;0.000;2023-07-08T21:19:31;97040.78;;;22.88;55.20
48774;BME280;34576;0.000;0.000;2023-07-08T21:26:31;97030.06;;;22.88;55.23
48774;BME280;34576;0.000;0.000;2023-07-08T21:33:32;97040.78;;;22.88;55.31
48774;BME280;34576;0.000;0.000;2023-07-08T21:40:36;97038.13;;;22.88;55.44
48774;BME280;34576;0.000;0.000;2023-07-08T21:47:37;97041.59;;;22.89;55.27
48774;BME280;34576;0.000;0.000;2023-07-08T21:54:37;97044.28;;;22.89;55.14
48774;BME280;34576;0.000;0.000;2023-07-08T22:01:37;97041.59;;;22.89;55.06
48774;BME280;34576;0.000;0.000;2023-07-08T22:08:37;97046.16;;;22.88;55.05
48774;BME280;34576;0.000;0.000;2023-07-08T22:15:38;97051.53;;;22.88;55.16
48774;BME280;34576;0.000;0.000;2023-07-08T22:22:38;97049.66;;;22.89;55.15
48774;BME280;34576;0.000;0.000;2023-07-08T22:29:38;97052.34;;;22.89;55.14
48774;BME280;34576;0.000;0.000;2023-07-08T22:36:38;97038.94;;;22.89;55.29
48774;BME280;34576;0.000;0.000;2023-07-08T22:43:40;97042.69;;;22.88;55.15
48774;BME280;34576;0.000;0.000;2023-07-08T22:50:40;97038.94;;;22.89;54.94
48774;BME280;34576;0.000;0.000;2023-07-08T22:57:41;97052.34;;;22.89;54.95
48774;BME280;34576;0.000;0.000;2023-07-08T23:04:41;97049.66;;;22.89;54.95
48774;BME280;34576;0.000;0.000;2023-07-08T23:11:42;97049.66;;;22.89;54.95
48774;BME280;34576;0.000;0.000;2023-07-08T23:18:43;97046.97;;;22.89;54.85
48774;BME280;34576;0.000;0.000;2023-07-08T23:25:43;97050.44;;;22.89;54.92
48774;BME280;34576;0.000;0.000;2023-07-08T23:32:44;97060.38;;;22.89;54.77
48774;BME280;34576;0.000;0.000;2023-07-08T23:39:45;97063.84;;;22.89;54.96
48774;BME280;34576;0.000;0.000;2023-07-08T23:46:46;97051.53;;;22.88;54.98
48774;BME280;34576;0.000;0.000;2023-07-08T23:53:48;97055.03;;;22.89;54.93
